createdAt,value
2018-06-15T00:01:10.933Z,3.70
2018-06-15T00:03:39.207Z,4.07
2018-06-15T00:06:07.484Z,3.87
2018-06-15T00:08:35.746Z,3.40
2018-06-15T00:11:04.116Z,3.57
2018-06-15T00:13:32.393Z,3.73
2018-06-15T00:16:00.698Z,3.90
2018-06-15T00:18:28.971Z,3.70
2018-06-15T00:20:57.245Z,4.13
2018-06-15T00:23:25.529Z,3.40
2018-06-15T00:25:53.555Z,3.60
2018-06-15T00:28:21.845Z,3.90
2018-06-15T00:30:50.157Z,3.67
2018-06-15T00:33:18.525Z,3.80
2018-06-15T00:35:46.827Z,3.80
2018-06-15T00:38:15.117Z,3.70
2018-06-15T00:40:43.133Z,3.53
2018-06-15T00:43:11.409Z,3.90
2018-06-15T00:45:39.687Z,3.63
2018-06-15T00:48:07.976Z,3.93
2018-06-15T00:50:36.244Z,4.13
2018-06-15T00:53:04.521Z,3.87
2018-06-15T00:55:32.813Z,3.60
2018-06-15T00:58:01.116Z,3.97
2018-06-15T01:00:29.391Z,3.90
2018-06-15T01:02:57.677Z,4.20
2018-06-15T01:05:25.976Z,3.63
2018-06-15T01:07:54.237Z,3.80
2018-06-15T01:10:22.505Z,3.80
2018-06-15T01:12:50.787Z,4.03
2018-06-15T01:15:19.071Z,3.60
2018-06-15T01:17:47.361Z,3.60
2018-06-15T01:20:15.632Z,3.47
2018-06-15T01:22:43.914Z,3.67
2018-06-15T01:25:12.203Z,4.00
2018-06-15T01:27:40.467Z,3.50
2018-06-15T01:30:08.531Z,3.53
2018-06-15T01:32:36.795Z,3.90
2018-06-15T01:35:05.076Z,3.93
2018-06-15T01:37:33.557Z,3.40
2018-06-15T01:40:01.858Z,3.60
2018-06-15T01:42:30.138Z,3.90
2018-06-15T01:44:58.395Z,3.40
2018-06-15T01:47:26.678Z,3.97
2018-06-15T01:49:54.940Z,4.00
2018-06-15T01:52:23.212Z,3.77
2018-06-15T01:54:51.532Z,3.53
2018-06-15T01:57:19.818Z,4.03
2018-06-15T01:59:48.098Z,3.87
2018-06-15T02:02:16.482Z,3.87
2018-06-15T02:04:44.768Z,4.03
2018-06-15T02:07:13.046Z,3.57
2018-06-15T02:09:41.356Z,3.60
2018-06-15T02:12:09.549Z,3.37
2018-06-15T02:14:37.830Z,3.83
2018-06-15T02:17:06.103Z,3.27
2018-06-15T02:19:34.406Z,3.53
2018-06-15T02:22:02.683Z,3.67
2018-06-15T02:24:30.973Z,3.80
2018-06-15T02:26:59.227Z,3.90
2018-06-15T02:29:27.494Z,3.77
2018-06-15T02:31:55.760Z,3.70
2018-06-15T02:34:24.064Z,3.80
2018-06-15T02:36:52.372Z,3.70
2018-06-15T02:39:20.639Z,3.70
2018-06-15T02:41:48.944Z,3.80
2018-06-15T02:44:17.331Z,3.80
2018-06-15T02:46:45.646Z,3.83
2018-06-15T02:49:13.919Z,3.70
2018-06-15T02:51:42.208Z,4.10
2018-06-15T02:54:10.479Z,3.70
2018-06-15T02:56:38.758Z,3.80
2018-06-15T02:59:07.059Z,3.80
2018-06-15T03:01:35.337Z,3.60
2018-06-15T03:04:03.602Z,3.80
2018-06-15T03:06:31.870Z,3.60
2018-06-15T03:09:00.144Z,3.50
2018-06-15T03:11:28.427Z,3.77
2018-06-15T03:13:56.724Z,4.30
2018-06-15T03:16:25.009Z,4.53
2018-06-15T03:18:53.273Z,3.93
2018-06-15T03:21:21.548Z,4.20
2018-06-15T03:23:49.810Z,4.13
2018-06-15T03:26:18.100Z,3.70
2018-06-15T03:28:46.406Z,4.37
2018-06-15T03:31:14.697Z,4.37
2018-06-15T03:33:42.954Z,4.10
2018-06-15T03:36:10.946Z,3.90
2018-06-15T03:38:39.222Z,4.33
2018-06-15T03:41:07.492Z,4.27
2018-06-15T03:43:35.768Z,4.30
2018-06-15T03:46:04.273Z,4.20
2018-06-15T03:48:32.548Z,4.10
2018-06-15T03:51:00.843Z,3.77
2018-06-15T03:53:29.103Z,3.70
2018-06-15T03:55:57.400Z,3.67
2018-06-15T03:58:25.386Z,4.10
2018-06-15T04:00:53.671Z,4.23
2018-06-15T04:03:21.960Z,4.30
2018-06-15T04:05:50.208Z,4.20
2018-06-15T04:08:18.988Z,4.77
2018-06-15T04:10:47.271Z,4.53
2018-06-15T04:13:15.627Z,4.50
2018-06-15T04:15:44.017Z,3.83
2018-06-15T04:18:12.289Z,4.37
2018-06-15T04:20:40.600Z,4.10
2018-06-15T04:23:09.181Z,4.27
2018-06-15T04:25:37.470Z,4.73
2018-06-15T04:28:05.781Z,4.30
2018-06-15T04:30:33.797Z,3.73
2018-06-15T04:33:02.065Z,3.90
2018-06-15T04:35:30.329Z,3.83
2018-06-15T04:37:58.721Z,4.60
2018-06-15T04:40:26.999Z,4.30
2018-06-15T04:42:55.287Z,4.10
2018-06-15T04:45:23.573Z,3.80
2018-06-15T04:47:51.857Z,4.10
2018-06-15T04:50:20.127Z,4.37
2018-06-15T04:52:48.427Z,4.20
2018-06-15T04:55:17.037Z,4.10
2018-06-15T04:57:45.553Z,3.73
2018-06-15T05:00:13.919Z,4.43
2018-06-15T05:02:42.206Z,4.63
2018-06-15T05:05:10.573Z,4.30
2018-06-15T05:07:38.862Z,5.00
2018-06-15T05:10:07.237Z,4.70
2018-06-15T05:12:35.268Z,4.67
2018-06-15T05:15:03.578Z,4.93
2018-06-15T05:17:31.873Z,4.90
2018-06-15T05:20:00.285Z,4.57
2018-06-15T05:22:28.687Z,5.13
2018-06-15T05:24:56.959Z,4.57
2018-06-15T05:27:25.223Z,4.87
2018-06-15T05:29:53.521Z,5.10
2018-06-15T05:32:21.869Z,4.77
2018-06-15T05:34:50.276Z,4.63
2018-06-15T05:37:18.543Z,6.07
2018-06-15T05:39:46.835Z,5.40
2018-06-15T05:42:15.271Z,5.03
2018-06-15T05:44:43.543Z,5.30
2018-06-15T05:47:11.823Z,5.90
2018-06-15T05:49:40.095Z,5.23
2018-06-15T05:52:08.433Z,5.23
2018-06-15T05:54:36.729Z,5.10
2018-06-15T05:57:05.182Z,5.20
2018-06-15T05:59:33.475Z,5.17
2018-06-15T06:02:01.760Z,4.90
2018-06-15T06:04:30.035Z,5.60
2018-06-15T06:06:58.343Z,5.50
2018-06-15T06:09:26.635Z,5.53
2018-06-15T06:11:54.910Z,5.37
2018-06-15T06:14:23.189Z,5.37
2018-06-15T06:16:51.477Z,5.40
2018-06-15T06:19:19.841Z,5.27
2018-06-15T06:21:48.208Z,5.00
2018-06-15T06:24:16.493Z,5.30
2018-06-15T06:26:44.758Z,5.30
2018-06-15T06:29:13.041Z,5.77
2018-06-15T06:31:41.137Z,4.97
2018-06-15T06:34:09.403Z,5.37
2018-06-15T06:36:37.695Z,6.20
2018-06-15T06:39:08.487Z,8.10
2018-06-15T06:41:36.781Z,56.07
2018-06-15T06:44:05.105Z,67.73
2018-06-15T06:46:33.392Z,64.43
2018-06-15T06:49:01.688Z,67.03
2018-06-15T06:51:29.964Z,57.13
2018-06-15T06:53:58.240Z,53.47
2018-06-15T06:56:26.886Z,46.57
2018-06-15T06:58:55.176Z,50.03
2018-06-15T07:01:23.472Z,50.73
2018-06-15T07:03:51.476Z,49.07
2018-06-15T07:06:19.794Z,50.93
2018-06-15T07:08:48.062Z,50.63
2018-06-15T07:11:16.336Z,51.20
2018-06-15T07:13:44.627Z,50.40
2018-06-15T07:16:13.094Z,46.47
2018-06-15T07:18:41.397Z,47.20
2018-06-15T07:21:09.769Z,48.73
2018-06-15T07:23:38.087Z,45.73
2018-06-15T07:26:06.363Z,46.33
2018-06-15T07:28:34.654Z,46.87
2018-06-15T07:31:02.938Z,44.23
2018-06-15T07:33:31.254Z,43.93
2018-06-15T07:35:59.537Z,40.77
2018-06-15T07:38:27.822Z,39.10
2018-06-15T07:40:56.124Z,40.00
2018-06-15T07:43:24.414Z,36.13
2018-06-15T07:45:52.856Z,36.73
2018-06-15T07:48:21.132Z,36.50
2018-06-15T07:50:49.172Z,33.80
2018-06-15T07:53:17.464Z,34.50
2018-06-15T07:55:45.754Z,34.53
2018-06-15T07:58:14.046Z,32.10
2018-06-15T08:00:42.340Z,32.23
2018-06-15T08:03:10.411Z,28.50
2018-06-15T08:05:38.698Z,30.67
2018-06-15T08:08:06.985Z,27.73
2018-06-15T08:10:35.286Z,26.90
2018-06-15T08:13:03.588Z,27.03
2018-06-15T08:15:31.868Z,26.83
2018-06-15T08:18:00.252Z,25.53
2018-06-15T08:20:28.526Z,28.00
2018-06-15T08:22:56.829Z,23.97
2018-06-15T08:25:25.224Z,25.70
2018-06-15T08:27:53.508Z,22.53
2018-06-15T08:30:21.780Z,22.80
2018-06-15T08:32:50.060Z,21.63
2018-06-15T08:35:18.376Z,22.60
2018-06-15T08:37:46.665Z,21.17
2018-06-15T08:40:14.958Z,23.57
2018-06-15T08:42:43.397Z,20.67
2018-06-15T08:45:11.738Z,20.57
2018-06-15T08:47:39.835Z,20.10
2018-06-15T08:50:08.115Z,20.50
2018-06-15T08:52:36.428Z,20.20
2018-06-15T08:55:04.992Z,20.20
2018-06-15T08:57:33.328Z,19.47
2018-06-15T09:00:01.597Z,19.90
2018-06-15T09:02:29.885Z,20.03
2018-06-15T09:04:58.160Z,18.40
2018-06-15T09:07:26.464Z,17.73
2018-06-15T09:09:54.820Z,18.47
2018-06-15T09:12:23.128Z,18.43
2018-06-15T09:14:51.417Z,16.87
2018-06-15T09:17:19.718Z,17.67
2018-06-15T09:19:48.006Z,17.93
2018-06-15T09:22:16.292Z,17.03
2018-06-15T09:24:44.600Z,16.47
2018-06-15T09:27:12.898Z,16.67
2018-06-15T09:29:41.170Z,16.40
2018-06-15T09:32:09.466Z,15.50
2018-06-15T09:34:37.756Z,15.60
2018-06-15T09:37:06.086Z,16.23
2018-06-15T09:39:34.350Z,16.57
2018-06-15T09:42:02.632Z,15.30
2018-06-15T09:44:30.700Z,15.50
2018-06-15T09:46:58.784Z,14.53
2018-06-15T09:49:26.820Z,15.10
2018-06-15T09:51:55.104Z,14.03
2018-06-15T09:54:23.402Z,13.97
2018-06-15T09:56:51.693Z,14.87
2018-06-15T09:59:19.976Z,13.27
2018-06-15T10:01:48.344Z,12.83
2018-06-15T10:04:16.622Z,13.40
2018-06-15T10:06:44.925Z,13.13
2018-06-15T10:09:13.333Z,12.80
2018-06-15T10:11:41.632Z,22.73
2018-06-15T10:14:10.038Z,13.80
2018-06-15T10:16:38.421Z,17.23
2018-06-15T10:19:06.663Z,14.37
2018-06-15T10:21:35.043Z,14.10
2018-06-15T10:24:03.333Z,13.93
2018-06-15T10:26:31.643Z,12.63
2018-06-15T10:28:59.961Z,12.90
2018-06-15T10:31:28.237Z,12.33
2018-06-15T10:33:56.541Z,11.87
2018-06-15T10:36:24.831Z,12.13
2018-06-15T10:38:53.143Z,11.87
2018-06-15T10:41:21.431Z,13.10
2018-06-15T10:43:49.704Z,12.00
2018-06-15T10:46:18.019Z,11.83
2018-06-15T10:48:46.304Z,11.23
2018-06-15T10:51:14.611Z,10.67
2018-06-15T10:53:42.909Z,11.43
2018-06-15T10:56:11.296Z,11.23
2018-06-15T10:58:39.559Z,9.83
2018-06-15T11:01:07.867Z,10.30
2018-06-15T11:03:36.153Z,10.53
2018-06-15T11:06:04.506Z,10.70
2018-06-15T11:08:32.810Z,10.07
2018-06-15T11:11:01.148Z,10.47
2018-06-15T11:13:29.439Z,10.07
2018-06-15T11:15:57.739Z,9.10
2018-06-15T11:18:26.023Z,10.07
2018-06-15T11:20:54.319Z,9.47
2018-06-15T11:23:22.597Z,9.93
2018-06-15T11:25:50.873Z,9.90
2018-06-15T11:28:19.161Z,9.33
2018-06-15T11:30:47.435Z,9.87
2018-06-15T11:33:15.726Z,8.93
2018-06-15T11:35:44.049Z,10.30
2018-06-15T11:38:12.437Z,10.53
2018-06-15T11:40:40.861Z,10.07
2018-06-15T11:43:09.139Z,10.70
2018-06-15T11:45:37.471Z,10.30
2018-06-15T11:48:05.757Z,10.90
2018-06-15T11:50:34.065Z,10.10
2018-06-15T11:53:02.352Z,8.47
2018-06-15T11:55:30.675Z,11.07
2018-06-15T11:57:58.981Z,9.60
2018-06-15T12:00:27.301Z,9.60
2018-06-15T12:02:55.603Z,9.33
2018-06-15T12:05:23.903Z,8.97
2018-06-15T12:07:52.249Z,9.17
2018-06-15T12:10:20.504Z,9.50
2018-06-15T12:12:48.873Z,8.50
2018-06-15T12:15:16.946Z,8.80
2018-06-15T12:17:45.270Z,7.60
2018-06-15T12:20:13.574Z,7.90
2018-06-15T12:22:41.925Z,15.40
2018-06-15T12:25:10.217Z,9.07
2018-06-15T12:27:38.490Z,9.10
2018-06-15T12:30:06.809Z,8.87
2018-06-15T12:32:35.093Z,8.47
2018-06-15T12:35:03.435Z,8.23
2018-06-15T12:37:31.734Z,8.60
2018-06-15T12:40:00.022Z,7.70
2018-06-15T12:42:28.366Z,8.23
2018-06-15T12:44:56.451Z,8.60
2018-06-15T12:47:24.751Z,9.70
2018-06-15T12:49:53.043Z,8.53
2018-06-15T12:52:21.327Z,8.87
2018-06-15T12:54:49.635Z,7.83
2018-06-15T12:57:17.934Z,8.23
2018-06-15T12:59:46.236Z,10.53
2018-06-15T13:02:14.525Z,10.07
2018-06-15T13:04:42.825Z,8.93
2018-06-15T13:07:11.216Z,9.50
2018-06-15T13:09:39.491Z,9.90
2018-06-15T13:12:07.789Z,9.60
2018-06-15T13:14:36.076Z,9.50
2018-06-15T13:17:04.357Z,8.67
2018-06-15T13:19:32.838Z,8.80
2018-06-15T13:22:01.106Z,8.70
2018-06-15T13:24:33.038Z,9.27
2018-06-15T13:27:01.496Z,8.37
2018-06-15T13:29:29.828Z,8.37
2018-06-15T13:31:58.121Z,8.70
2018-06-15T13:34:26.416Z,8.60
2018-06-15T13:36:54.716Z,8.47
2018-06-15T13:39:23.020Z,8.03
2018-06-15T13:41:51.319Z,8.83
2018-06-15T13:44:19.588Z,8.20
2018-06-15T13:46:47.854Z,8.93
2018-06-15T13:49:16.198Z,8.33
2018-06-15T13:51:44.531Z,7.63
2018-06-15T13:54:12.877Z,7.87
2018-06-15T13:56:41.181Z,8.70
2018-06-15T13:59:09.561Z,7.97
2018-06-15T14:01:37.860Z,8.37
2018-06-15T14:04:06.188Z,8.67
2018-06-15T14:06:34.455Z,7.53
2018-06-15T14:09:02.685Z,7.83
2018-06-15T14:11:30.965Z,8.13
2018-06-15T14:13:59.258Z,7.30
2018-06-15T14:16:27.554Z,7.97
2018-06-15T14:18:56.028Z,7.37
2018-06-15T14:21:24.306Z,7.90
2018-06-15T14:23:52.615Z,8.00
2018-06-15T14:26:20.917Z,7.47
2018-06-15T14:28:48.923Z,7.40
2018-06-15T14:31:17.210Z,7.77
2018-06-15T14:33:45.548Z,7.93
2018-06-15T14:36:13.829Z,7.67
2018-06-15T14:38:42.114Z,7.63
2018-06-15T14:41:10.383Z,7.20
2018-06-15T14:43:38.669Z,7.27
2018-06-15T14:46:06.944Z,7.50
2018-06-15T14:48:35.214Z,7.63
2018-06-15T14:51:03.557Z,7.43
2018-06-15T14:53:31.844Z,7.77
2018-06-15T14:56:00.141Z,7.70
2018-06-15T14:58:28.705Z,7.67
2018-06-15T15:00:57.000Z,7.33
2018-06-15T15:03:25.316Z,7.70
2018-06-15T15:05:53.589Z,7.57
2018-06-15T15:08:21.610Z,7.50
2018-06-15T15:10:50.022Z,7.73
2018-06-15T15:13:18.326Z,7.43
2018-06-15T15:15:46.652Z,7.90
2018-06-15T15:18:14.939Z,7.87
2018-06-15T15:20:43.124Z,7.70
2018-06-15T15:23:11.441Z,8.03
2018-06-15T15:25:39.722Z,7.80
2018-06-15T15:28:08.016Z,7.63
2018-06-15T15:30:36.676Z,7.40
2018-06-15T15:33:04.960Z,8.40
2018-06-15T15:35:33.320Z,8.23
2018-06-15T15:38:01.630Z,7.17
2018-06-15T15:40:29.908Z,7.53
2018-06-15T15:42:58.192Z,6.87
2018-06-15T15:45:26.486Z,7.53
2018-06-15T15:47:54.764Z,7.57
2018-06-15T15:50:23.111Z,8.17
2018-06-15T15:52:51.444Z,8.20
2018-06-15T15:55:19.732Z,8.03
2018-06-15T15:57:48.032Z,7.97
2018-06-15T16:00:16.368Z,7.17
2018-06-15T16:02:44.676Z,7.90
2018-06-15T16:05:12.993Z,8.63
2018-06-15T16:07:41.288Z,7.37
2018-06-15T16:10:09.563Z,7.87
2018-06-15T16:12:37.832Z,7.57
2018-06-15T16:15:06.132Z,7.37
2018-06-15T16:17:34.522Z,7.37
2018-06-15T16:20:02.798Z,7.90
2018-06-15T16:22:31.084Z,7.40
2018-06-15T16:24:59.392Z,7.13
2018-06-15T16:27:27.737Z,8.03
2018-06-15T16:29:56.104Z,6.93
2018-06-15T16:32:24.409Z,7.40
2018-06-15T16:34:52.766Z,7.80
2018-06-15T16:37:21.097Z,7.53
2018-06-15T16:39:49.361Z,7.27
2018-06-15T16:42:17.698Z,7.80
2018-06-15T16:44:45.991Z,7.70
2018-06-15T16:47:14.272Z,7.00
2018-06-15T16:49:42.698Z,7.60
2018-06-15T16:52:11.010Z,7.63
2018-06-15T16:54:39.412Z,7.07
2018-06-15T16:57:07.758Z,7.63
2018-06-15T16:59:36.046Z,7.27
2018-06-15T17:02:04.241Z,7.30
2018-06-15T17:04:32.548Z,7.87
2018-06-15T17:07:00.868Z,8.03
2018-06-15T17:09:29.252Z,8.00
2018-06-15T17:11:57.535Z,7.53
2018-06-15T17:14:25.836Z,7.70
2018-06-15T17:16:54.124Z,7.90
2018-06-15T17:19:22.202Z,7.33
2018-06-15T17:21:50.472Z,7.67
2018-06-15T17:24:18.760Z,12.63
2018-06-15T17:26:46.789Z,22.47
2018-06-15T17:29:15.113Z,37.80
2018-06-15T17:31:43.409Z,50.17
2018-06-15T17:34:11.536Z,65.60
2018-06-15T17:36:45.508Z,64.40
2018-06-15T17:39:14.390Z,61.17
2018-06-15T17:41:43.908Z,60.20
2018-06-15T17:44:12.218Z,60.67
2018-06-15T17:46:40.585Z,58.27
2018-06-15T17:49:09.341Z,59.77
2018-06-15T17:51:37.617Z,56.60
2018-06-15T17:54:05.955Z,58.70
2018-06-15T17:56:34.262Z,56.50
2018-06-15T17:59:02.545Z,54.13
2018-06-15T18:01:30.978Z,51.83
2018-06-15T18:03:59.318Z,48.33
2018-06-15T18:06:27.672Z,47.90
2018-06-15T18:08:56.279Z,44.40
2018-06-15T18:11:24.558Z,43.57
2018-06-15T18:13:53.064Z,40.27
2018-06-15T18:16:21.372Z,42.23
2018-06-15T18:18:49.750Z,43.17
2018-06-15T18:21:18.073Z,40.00
2018-06-15T18:23:46.385Z,40.57
2018-06-15T18:26:15.099Z,41.23
2018-06-15T18:28:43.435Z,39.60
2018-06-15T18:31:11.995Z,39.63
2018-06-15T18:33:40.321Z,41.27
2018-06-15T18:36:08.655Z,37.70
2018-06-15T18:38:36.958Z,37.57
2018-06-15T18:41:04.992Z,37.73
2018-06-15T18:43:33.297Z,37.23
2018-06-15T18:46:01.578Z,35.07
2018-06-15T18:48:29.981Z,33.70
2018-06-15T18:50:58.292Z,34.10
2018-06-15T18:53:26.605Z,32.60
2018-06-15T18:55:54.964Z,31.23
2018-06-15T18:58:23.361Z,28.27
2018-06-15T19:00:51.401Z,29.63
2018-06-15T19:03:19.731Z,30.67
2018-06-15T19:05:48.038Z,30.40
2018-06-15T19:08:16.400Z,27.77
2018-06-15T19:10:44.722Z,27.80
2018-06-15T19:13:13.021Z,30.00
2018-06-15T19:15:41.356Z,29.63
2018-06-15T19:18:09.635Z,28.90
2018-06-15T19:20:37.660Z,28.67
2018-06-15T19:23:06.185Z,29.03
2018-06-15T19:25:34.481Z,28.33
2018-06-15T19:28:02.804Z,25.53
2018-06-15T19:30:31.808Z,24.33
2018-06-15T19:32:59.837Z,24.27
2018-06-15T19:35:28.154Z,24.10
2018-06-15T19:37:56.559Z,23.93
2018-06-15T19:40:24.869Z,23.57
2018-06-15T19:42:53.179Z,24.37
2018-06-15T19:45:21.477Z,23.67
2018-06-15T19:47:49.878Z,23.77
2018-06-15T19:50:18.177Z,23.23
2018-06-15T19:52:46.603Z,23.40
2018-06-15T19:55:14.905Z,23.07
2018-06-15T19:57:43.195Z,22.30
2018-06-15T20:00:11.511Z,22.13
2018-06-15T20:02:39.828Z,21.73
2018-06-15T20:05:08.399Z,22.07
2018-06-15T20:07:36.725Z,21.93
2018-06-15T20:10:05.043Z,20.50
2018-06-15T20:12:33.341Z,22.27
2018-06-15T20:15:01.759Z,20.77
2018-06-15T20:17:29.829Z,20.50
2018-06-15T20:19:57.971Z,21.00
2018-06-15T20:22:26.325Z,20.37
2018-06-15T20:24:54.781Z,21.57
2018-06-15T20:27:23.067Z,21.73
2018-06-15T20:29:51.396Z,21.70
2018-06-15T20:32:19.445Z,19.77
2018-06-15T20:34:47.757Z,20.20
2018-06-15T20:37:16.091Z,19.67
2018-06-15T20:39:44.414Z,18.87
2018-06-15T20:42:12.727Z,18.97
2018-06-15T20:44:41.012Z,19.20
2018-06-15T20:47:09.372Z,18.90
2018-06-15T20:49:37.399Z,18.80
2018-06-15T20:52:05.865Z,18.93
2018-06-15T20:54:34.183Z,18.77
2018-06-15T20:57:02.583Z,18.57
2018-06-15T20:59:30.881Z,18.53
2018-06-15T21:01:58.975Z,18.63
2018-06-15T21:04:27.285Z,18.60
2018-06-15T21:06:55.581Z,16.83
2018-06-15T21:09:23.607Z,16.63
2018-06-15T21:11:51.925Z,17.73
2018-06-15T21:14:20.345Z,18.07
2018-06-15T21:16:48.658Z,17.83
2018-06-15T21:19:17.229Z,16.97
2018-06-15T21:21:45.577Z,17.80
2018-06-15T21:24:13.857Z,16.67
2018-06-15T21:26:42.157Z,17.57
2018-06-15T21:29:10.453Z,17.20
2018-06-15T21:31:38.735Z,16.40
2018-06-15T21:34:07.221Z,16.90
2018-06-15T21:36:35.541Z,15.00
2018-06-15T21:39:05.527Z,15.93
2018-06-15T21:41:33.908Z,14.97
2018-06-15T21:44:02.275Z,15.00
2018-06-15T21:46:30.297Z,14.90
2018-06-15T21:48:58.363Z,14.50
2018-06-15T21:51:26.651Z,15.60
2018-06-15T21:53:54.931Z,14.67
2018-06-15T21:56:23.225Z,15.37
2018-06-15T21:58:51.641Z,15.10
2018-06-15T22:01:21.086Z,15.40
2018-06-15T22:03:49.420Z,14.57
2018-06-15T22:06:17.705Z,14.43
2018-06-15T22:08:46.003Z,14.30
2018-06-15T22:11:14.270Z,13.73
2018-06-15T22:13:42.558Z,14.50
2018-06-15T22:16:11.021Z,13.80
2018-06-15T22:18:39.335Z,13.77
2018-06-15T22:21:07.730Z,13.73
2018-06-15T22:23:36.059Z,13.47
2018-06-15T22:26:04.375Z,13.97
2018-06-15T22:28:32.703Z,13.73
2018-06-15T22:31:01.015Z,13.73
2018-06-15T22:33:29.037Z,13.23
2018-06-15T22:35:57.309Z,12.90
2018-06-15T22:38:25.579Z,12.70
2018-06-15T22:40:53.908Z,12.00
2018-06-15T22:43:22.312Z,12.27
2018-06-15T22:45:50.999Z,12.23
2018-06-15T22:48:19.387Z,13.13
2018-06-15T22:50:47.659Z,12.13
2018-06-15T22:53:15.971Z,11.33
2018-06-15T22:55:44.244Z,11.70
2018-06-15T22:58:12.268Z,12.67
2018-06-15T23:00:40.306Z,12.30
2018-06-15T23:03:08.605Z,11.37
2018-06-15T23:05:36.920Z,11.77
2018-06-15T23:08:05.053Z,11.80
2018-06-15T23:10:33.348Z,11.30
2018-06-15T23:13:01.656Z,11.33
2018-06-15T23:15:30.011Z,11.67
2018-06-15T23:17:58.303Z,11.37
2018-06-15T23:20:26.601Z,11.47
2018-06-15T23:22:54.872Z,11.93
2018-06-15T23:25:23.157Z,10.90
2018-06-15T23:27:51.630Z,10.93
2018-06-15T23:30:19.924Z,11.10
2018-06-15T23:32:48.229Z,10.60
2018-06-15T23:35:16.525Z,11.27
2018-06-15T23:37:44.843Z,10.43
2018-06-15T23:40:12.976Z,11.00
2018-06-15T23:42:41.326Z,10.90
2018-06-15T23:45:09.623Z,10.40
2018-06-15T23:47:38.010Z,10.37
2018-06-15T23:50:06.550Z,10.60
2018-06-15T23:52:34.854Z,10.47
2018-06-15T23:55:03.160Z,10.60
2018-06-15T23:57:31.438Z,9.80
2018-06-15T23:59:59.706Z,9.97
